Time;durP1;ratioP1;P1;durP2;ratioP2;P2;SDS_P1;SDS_P2;PMS_P1;PMS_P2;Temp;Humidity;BMP_temperature;BMP_pressure;BME280_temperature;BME280_humidity;BME280_pressure;Samples;Min_cycle;Max_cycle;Signal;HPM_P1;HPM_P2
2021/01/28 00:01:43;;;;;;;17.17;12.20;;;;;;;-146.19;100.00;58918.88;5016516;28;20412;-44
2021/01/28 00:04:11;;;;;;;17.92;12.38;;;;;;;-146.19;100.00;58918.88;5028860;28;20475;-46
2021/01/28 00:06:39;;;;;;;18.88;13.15;;;;;;;-146.19;100.00;58918.88;5020279;28;20719;-45
2021/01/28 00:09:06;;;;;;;16.45;11.35;;;;;;;-146.19;100.00;58918.88;5035393;28;20395;-45
2021/01/28 00:11:34;;;;;;;18.33;12.40;;;;;;;-146.19;100.00;58918.88;5023761;28;20493;-47
2021/01/28 00:14:01;;;;;;;17.67;13.02;;;;;;;-146.19;100.00;58918.88;5045598;28;20508;-45
2021/01/28 00:16:28;;;;;;;19.05;13.43;;;;;;;-146.19;100.00;58918.88;5032586;28;20504;-45
2021/01/28 00:18:56;;;;;;;18.17;12.27;;;;;;;-146.19;100.00;58918.88;5023649;28;20473;-43
2021/01/28 00:21:23;;;;;;;17.25;11.82;;;;;;;-146.19;100.00;58918.88;5023165;28;20405;-45
2021/01/28 00:23:52;;;;;;;15.27;10.63;;;;;;;-146.19;100.00;58918.88;5019139;28;20422;-44
2021/01/28 00:26:19;;;;;;;17.20;12.57;;;;;;;-146.19;100.00;58918.88;5020447;28;20409;-47
2021/01/28 00:28:46;;;;;;;17.27;13.25;;;;;;;-146.19;100.00;58918.88;5034889;28;20417;-44
2021/01/28 00:31:14;;;;;;;17.50;12.80;;;;;;;-146.19;100.00;58918.88;5034025;28;20417;-46
2021/01/28 00:33:41;;;;;;;18.10;13.23;;;;;;;-146.19;100.00;58918.88;5042897;28;20410;-46
2021/01/28 00:36:10;;;;;;;18.08;12.80;;;;;;;-146.19;100.00;58918.88;5029834;28;20415;-45
2021/01/28 00:38:38;;;;;;;16.67;12.68;;;;;;;-146.19;100.00;58918.88;5019018;28;20499;-44
2021/01/28 00:41:16;;;;;;;18.05;13.02;;;;;;;-146.19;100.00;58918.88;5017713;28;20423;-44
2021/01/28 00:43:44;;;;;;;15.98;12.02;;;;;;;-146.19;100.00;58918.88;5023490;28;20417;-47
2021/01/28 00:46:11;;;;;;;17.10;12.35;;;;;;;-146.19;100.00;58918.88;5025612;28;20424;-46
2021/01/28 00:48:41;;;;;;;17.15;12.95;;;;;;;-146.19;100.00;58918.88;5025410;28;20399;-46
2021/01/28 00:51:08;;;;;;;18.25;13.07;;;;;;;-146.19;100.00;58918.88;5015128;28;20463;-44
2021/01/28 00:53:36;;;;;;;17.80;13.00;;;;;;;-146.19;100.00;58918.88;5038574;28;20919;-48
2021/01/28 00:56:03;;;;;;;17.65;12.30;;;;;;;-146.19;100.00;58918.88;5036153;28;20411;-46
2021/01/28 00:58:43;;;;;;;16.42;12.50;;;;;;;-146.19;100.00;58918.88;5005527;28;20432;-44
2021/01/28 01:01:11;;;;;;;16.85;12.35;;;;;;;-146.19;100.00;58918.88;5001386;28;20411;-45
2021/01/28 01:03:38;;;;;;;15.75;12.38;;;;;;;-146.19;100.00;58918.88;5023492;28;20798;-47
2021/01/28 01:06:09;;;;;;;16.13;12.70;;;;;;;-146.19;100.00;58918.88;5022623;28;20437;-45
2021/01/28 01:08:37;;;;;;;17.10;12.52;;;;;;;-146.19;100.00;58918.88;5045814;28;20894;-45
2021/01/28 01:11:13;;;;;;;16.47;12.87;;;;;;;-146.19;100.00;58918.88;5038406;28;20493;-46
2021/01/28 01:13:45;;;;;;;15.43;12.02;;;;;;;-146.19;100.00;58918.88;5039378;28;20449;-42
2021/01/28 01:16:19;;;;;;;16.52;12.80;;;;;;;-146.19;100.00;58918.88;5032280;28;20409;-45
2021/01/28 01:18:52;;;;;;;14.70;11.38;;;;;;;-146.19;100.00;58918.88;5043885;28;20415;-47
2021/01/28 01:21:21;;;;;;;16.45;11.82;;;;;;;-146.19;100.00;58918.88;5015777;28;20446;-45
2021/01/28 01:24:04;;;;;;;14.63;10.90;;;;;;;-146.19;100.00;58918.88;5013345;28;21502;-45
2021/01/28 01:26:31;;;;;;;15.82;11.48;;;;;;;-146.19;100.00;58918.88;5039180;28;20422;-42
2021/01/28 01:28:59;;;;;;;15.63;11.52;;;;;;;-146.19;100.00;58918.88;5030143;28;20411;-44
2021/01/28 01:31:53;;;;;;;13.82;10.98;;;;;;;-146.19;100.00;58918.88;5030748;28;20413;-44
2021/01/28 01:34:22;;;;;;;15.52;11.50;;;;;;;-146.19;100.00;58918.88;5022576;28;20396;-45
2021/01/28 01:36:49;;;;;;;14.55;11.10;;;;;;;-146.19;100.00;58918.88;5033951;28;20455;-43
2021/01/28 01:39:16;;;;;;;14.35;10.90;;;;;;;-146.19;100.00;58918.88;5035494;28;20458;-46
2021/01/28 01:41:46;;;;;;;15.10;11.82;;;;;;;-146.19;100.00;58918.88;5024746;28;20472;-43
2021/01/28 01:44:38;;;;;;;14.93;11.50;;;;;;;1.74;100.00;96040.66;5081608;27;20839;-44
2021/01/28 01:47:47;;;;;;;15.43;11.82;;;;;;;1.66;100.00;96033.38;5070344;28;20426;-44
2021/01/28 01:50:31;;;;;;;15.52;11.50;;;;;;;1.66;100.00;96035.97;5051610;28;20410;-43
2021/01/28 01:52:59;;;;;;;15.52;11.77;;;;;;;1.65;100.00;96031.69;5065904;28;20484;-47
2021/01/28 01:55:27;;;;;;;15.27;11.80;;;;;;;1.71;100.00;96036.50;5056122;28;20428;-44
2021/01/28 01:58:07;;;;;;;15.88;11.95;;;;;;;1.74;100.00;96025.06;5057464;28;20407;-49
2021/01/28 02:00:52;;;;;;;16.08;12.57;;;;;;;1.73;100.00;96026.00;5061453;28;20466;-45
2021/01/28 02:03:23;;;;;;;15.80;12.15;;;;;;;1.71;100.00;96014.88;5058419;28;20432;-45
2021/01/28 02:06:20;;;;;;;15.93;12.52;;;;;;;1.71;100.00;96020.06;5059452;28;20484;-47
2021/01/28 02:09:09;;;;;;;15.63;12.20;;;;;;;1.66;100.00;96005.63;5077288;27;20549;-46
2021/01/28 02:11:52;;;;;;;16.25;11.95;;;;;;;1.72;100.00;96006.13;5084708;28;20416;-48
2021/01/28 02:14:52;;;;;;;16.05;12.07;;;;;;;1.77;100.00;96011.88;5082376;28;20436;-47
2021/01/28 02:17:27;;;;;;;15.60;11.85;;;;;;;1.75;100.00;96011.13;5109733;27;20484;-47
2021/01/28 02:21:05;;;;;;;14.80;12.07;;;;;;;1.71;100.00;96005.31;5077234;28;20420;-44
2021/01/28 02:23:53;;;;;;;14.25;10.27;;;;;;;1.68;100.00;96002.91;5057048;27;20508;-45
2021/01/28 02:26:28;;;;;;;13.77;10.85;;;;;;;1.76;100.00;95986.81;5069520;28;20465;-46
2021/01/28 02:29:08;;;;;;;14.48;11.18;;;;;;;1.81;100.00;95990.75;5075313;27;20420;-49
2021/01/28 02:31:37;;;;;;;13.77;10.52;;;;;;;1.83;100.00;95991.50;5106752;27;20492;-50
2021/01/28 02:34:06;;;;;;;13.98;10.18;;;;;;;1.82;100.00;95991.59;5082700;27;20516;-45
2021/01/28 02:36:57;;;;;;;11.52;8.65;;;;;;;1.81;100.00;95989.94;5079018;28;20540;-46
2021/01/28 02:39:44;;;;;;;14.95;10.60;;;;;;;1.84;100.00;95985.34;5094949;28;20424;-48
2021/01/28 02:42:22;;;;;;;12.07;9.57;;;;;;;1.83;100.00;95982.88;5108822;27;20413;-49
2021/01/28 02:45:00;;;;;;;12.65;9.52;;;;;;;1.84;100.00;95985.34;5076240;27;20424;-45
2021/01/28 02:47:51;;;;;;;13.00;9.75;;;;;;;1.86;100.00;95980.91;5076952;27;20415;-45
2021/01/28 02:50:28;;;;;;;12.80;9.48;;;;;;;1.86;100.00;95982.66;5070251;28;20417;-48
2021/01/28 02:52:57;;;;;;;11.73;8.85;;;;;;;1.83;100.00;95978.50;5077643;27;20485;-49
2021/01/28 02:55:25;;;;;;;12.55;9.45;;;;;;;1.85;100.00;95981.00;5064630;28;20432;-52
2021/01/28 02:57:53;;;;;;;12.75;9.75;;;;;;;1.81;100.00;95984.72;5093191;28;20412;-50
2021/01/28 03:00:25;;;;;;;14.68;9.75;;;;;;;1.80;100.00;95977.88;5097007;27;20417;-46
2021/01/28 03:02:54;;;;;;;11.93;9.55;;;;;;;1.88;100.00;95980.78;5103177;22;20406;31
2021/01/28 03:05:38;;;;;;;12.85;10.13;;;;;;;1.85;100.00;95968.00;4974273;28;20410;-45
2021/01/28 03:08:05;;;;;;;12.00;8.95;;;;;;;1.91;100.00;95972.78;4999789;28;20446;-49
2021/01/28 03:10:33;;;;;;;12.63;9.32;;;;;;;1.92;100.00;95958.84;4986518;28;20425;-49
2021/01/28 03:13:04;;;;;;;13.05;9.52;;;;;;;1.91;100.00;95962.38;4998281;28;20771;-49
2021/01/28 03:16:00;;;;;;;12.23;8.82;;;;;;;1.94;100.00;95961.34;4974834;28;20453;-49
2021/01/28 03:18:29;;;;;;;12.23;9.20;;;;;;;1.96;100.00;95959.47;5022262;28;20490;-51
2021/01/28 03:21:02;;;;;;;12.90;8.93;;;;;;;1.89;100.00;95952.09;5010738;28;20419;-49
2021/01/28 03:23:52;;;;;;;11.57;8.18;;;;;;;1.85;100.00;95949.78;5014924;28;20419;-48
2021/01/28 03:26:40;;;;;;;12.30;9.20;;;;;;;1.90;100.00;95945.97;5017469;28;20434;-51
2021/01/28 03:29:10;;;;;;;12.48;9.23;;;;;;;1.83;100.00;95942.13;5011045;28;20427;-46
2021/01/28 03:31:40;;;;;;;12.13;8.33;;;;;;;1.82;100.00;95937.81;5008411;28;20441;-53
2021/01/28 03:34:11;;;;;;;12.23;9.02;;;;;;;1.83;100.00;95936.09;5017544;28;20471;-48
2021/01/28 03:36:40;;;;;;;11.82;8.90;;;;;;;1.92;100.00;95932.84;5010393;28;20421;-46
2021/01/28 03:39:11;;;;;;;11.77;8.30;;;;;;;1.89;100.00;95930.44;5001227;28;20462;-49
2021/01/28 03:41:39;;;;;;;11.63;8.68;;;;;;;1.86;100.00;95931.50;5011775;28;20443;-50
2021/01/28 03:44:06;;;;;;;12.63;9.23;;;;;;;1.88;100.00;95928.78;5013299;28;20409;-46
2021/01/28 03:46:34;;;;;;;11.23;8.45;;;;;;;1.94;100.00;95927.56;5033259;28;21068;-48
2021/01/28 03:49:01;;;;;;;11.20;8.87;;;;;;;1.87;100.00;95932.34;5043110;28;20559;-46
2021/01/28 03:51:44;;;;;;;13.25;8.73;;;;;;;1.86;100.00;95922.88;5031853;28;20467;-48
2021/01/28 03:54:30;;;;;;;11.50;8.20;;;;;;;1.88;100.00;95921.81;5040110;28;20413;-46
2021/01/28 03:57:07;;;;;;;11.55;8.30;;;;;;;1.86;100.00;95921.09;5039903;28;20413;-50
2021/01/28 03:59:42;;;;;;;11.23;8.52;;;;;;;1.87;100.00;95914.13;5019593;28;20423;-47
2021/01/28 04:02:20;;;;;;;11.93;8.80;;;;;;;1.92;100.00;95908.63;5023146;28;20416;-47
2021/01/28 04:05:23;;;;;;;12.10;9.05;;;;;;;1.90;100.00;95903.53;5032938;28;20881;-46
2021/01/28 04:08:09;;;;;;;11.80;8.40;;;;;;;1.79;100.00;95900.81;5034441;28;20412;-47
2021/01/28 04:11:06;;;;;;;12.00;9.02;;;;;;;1.85;100.00;95898.63;5041941;28;20512;-46
2021/01/28 04:13:33;;;;;;;11.68;9.00;;;;;;;1.89;100.00;95896.66;5031897;28;20404;-51
2021/01/28 04:16:00;;;;;;;12.18;8.82;;;;;;;1.86;100.00;95892.50;5029198;28;20418;-45
2021/01/28 04:18:29;;;;;;;12.18;8.68;;;;;;;1.90;100.00;95887.94;5035702;28;20776;-45
2021/01/28 04:21:07;;;;;;;12.30;8.70;;;;;;;2.01;100.00;95887.19;5034284;28;20971;-51
2021/01/28 04:23:35;;;;;;;11.30;8.93;;;;;;;1.96;100.00;95884.06;5035144;28;21281;-45
2021/01/28 04:26:22;;;;;;;11.25;8.85;;;;;;;1.94;100.00;95873.78;5037321;28;20830;-52
2021/01/28 04:28:55;;;;;;;11.52;8.73;;;;;;;1.95;100.00;95872.00;5033842;28;20501;-48
2021/01/28 04:31:40;;;;;;;11.53;9.00;;;;;;;1.93;100.00;95872.13;5034113;28;20428;-45
2021/01/28 04:34:32;;;;;;;11.65;9.13;;;;;;;2.00;100.00;95867.34;5040208;28;20668;-48
2021/01/28 04:37:05;;;;;;;11.35;8.75;;;;;;;2.02;100.00;95862.84;5034067;28;20419;-48
2021/01/28 04:40:12;;;;;;;10.98;8.48;;;;;;;1.98;100.00;95862.22;4977488;28;20971;-46
2021/01/28 04:42:44;;;;;;;10.27;8.60;;;;;;;2.02;100.00;95855.03;5010331;28;20415;-49
2021/01/28 04:45:19;;;;;;;10.52;8.40;;;;;;;2.06;100.00;95852.09;5037298;28;20421;-49
2021/01/28 04:47:50;;;;;;;11.97;8.87;;;;;;;2.10;100.00;95856.19;5033615;28;20509;-45
2021/01/28 04:50:41;;;;;;;10.95;8.65;;;;;;;2.14;100.00;95843.78;5004927;28;20399;-52
2021/01/28 04:53:18;;;;;;;10.10;8.50;;;;;;;2.12;100.00;95843.88;5032882;28;20422;-48
2021/01/28 04:56:10;;;;;;;12.00;9.07;;;;;;;2.12;100.00;95836.06;5033878;28;20412;-48
2021/01/28 04:58:39;;;;;;;11.85;9.10;;;;;;;2.11;100.00;95829.22;5031844;28;20411;-48
2021/01/28 05:01:16;;;;;;;10.73;8.68;;;;;;;2.19;100.00;95828.69;5034897;28;20413;-49
2021/01/28 05:04:05;;;;;;;11.27;8.70;;;;;;;2.13;100.00;95822.16;5025128;28;20426;-51
2021/01/28 05:06:52;;;;;;;13.23;8.73;;;;;;;2.15;100.00;95809.03;5039677;28;20417;-48
2021/01/28 05:09:36;;;;;;;10.82;8.93;;;;;;;2.08;100.00;95807.81;5031607;28;20421;-49
2021/01/28 05:12:22;;;;;;;11.02;8.85;;;;;;;2.09;100.00;95796.47;5038469;28;20470;-48
2021/01/28 05:15:18;;;;;;;11.50;8.57;;;;;;;2.08;100.00;95782.63;5016816;28;20426;-56
2021/01/28 05:18:31;;;;;;;10.77;8.80;;;;;;;2.10;100.00;95772.13;4989477;28;21001;-47
2021/01/28 05:21:23;;;;;;;11.18;8.38;;;;;;;2.08;100.00;95769.63;4986152;28;20473;-52
2021/01/28 05:24:27;;;;;;;11.60;8.88;;;;;;;2.09;100.00;95771.28;5021481;28;20951;-54
2021/01/28 05:26:54;;;;;;;10.80;8.48;;;;;;;2.04;100.00;95756.97;5034284;28;20415;-46
2021/01/28 05:29:24;;;;;;;11.20;8.65;;;;;;;2.14;100.00;95752.75;5039056;28;20415;-54
2021/01/28 05:32:00;;;;;;;10.00;8.38;;;;;;;2.01;100.00;95763.22;5032715;28;20495;-49
2021/01/28 05:34:31;;;;;;;11.00;8.40;;;;;;;1.96;100.00;95757.53;5035841;28;20419;-50
2021/01/28 05:37:23;;;;;;;11.88;8.57;;;;;;;2.05;100.00;95745.63;5027652;28;20420;-49
2021/01/28 05:40:11;;;;;;;12.25;8.98;;;;;;;2.07;100.00;95744.56;5032442;28;20419;-47
2021/01/28 05:42:42;;;;;;;12.50;8.83;;;;;;;2.01;100.00;95747.59;5038928;28;20919;-52
2021/01/28 05:45:26;;;;;;;11.70;8.57;;;;;;;2.07;100.00;95739.38;5017261;28;20399;-48
2021/01/28 05:48:23;;;;;;;11.63;8.30;;;;;;;2.11;100.00;95729.56;5024812;28;20409;-47
2021/01/28 05:51:07;;;;;;;12.57;8.73;;;;;;;2.20;100.00;95721.09;5024938;28;21709;-46
2021/01/28 05:53:37;;;;;;;11.05;8.15;;;;;;;2.23;100.00;95725.25;5036628;28;20406;-46
2021/01/28 05:56:14;;;;;;;10.75;8.13;;;;;;;2.22;100.00;95721.81;5028720;28;20405;-48
2021/01/28 05:58:45;;;;;;;10.75;7.90;;;;;;;2.25;100.00;95721.59;5035799;28;20409;-48
2021/01/28 06:01:23;;;;;;;11.90;7.65;;;;;;;2.34;100.00;95720.06;5017863;28;21431;-57
2021/01/28 06:04:25;;;;;;;11.20;7.70;;;;;;;2.45;100.00;95707.13;5041077;28;20449;-47
2021/01/28 06:07:32;;;;;;;10.17;7.60;;;;;;;2.40;100.00;95714.44;5021535;28;20502;-50
2021/01/28 06:10:46;;;;;;;11.10;8.48;;;;;;;2.28;100.00;95723.97;5011405;28;20909;-50
2021/01/28 06:14:14;;;;;;;11.43;8.30;;;;;;;2.28;100.00;95721.38;5023425;28;20496;-46
2021/01/28 06:17:37;;;;;;;47.90;36.00;;;;;;;2.31;100.00;95717.72;4974084;28;20420;-46
2021/01/28 06:20:43;;;;;;;10.85;7.93;;;;;;;2.30;100.00;95716.03;4976262;28;20531;-48
2021/01/28 06:23:24;;;;;;;12.27;7.90;;;;;;;2.34;100.00;95709.66;5015515;28;20429;-50
2021/01/28 06:26:07;;;;;;;11.27;8.57;;;;;;;2.33;100.00;95702.81;5034647;28;20758;-45
2021/01/28 06:29:06;;;;;;;10.70;8.27;;;;;;;2.40;100.00;95690.19;5031599;28;20418;-51
2021/01/28 06:31:44;;;;;;;10.90;8.70;;;;;;;2.32;100.00;95680.34;5038750;28;20411;-49
2021/01/28 06:34:50;;;;;;;10.77;7.70;;;;;;;2.40;100.00;95690.19;5038684;28;20412;-49
2021/01/28 06:37:59;;;;;;;10.18;7.30;;;;;;;2.34;100.00;95686.25;5033209;28;20417;-52
2021/01/28 06:40:48;;;;;;;10.48;7.90;;;;;;;2.34;100.00;95689.72;5035874;28;20508;-52
2021/01/28 06:43:43;;;;;;;10.57;7.75;;;;;;;2.40;100.00;95680.59;5036826;28;20420;-49
2021/01/28 06:46:41;;;;;;;9.32;6.97;;;;;;;2.43;100.00;95682.16;5039603;28;20436;-48
2021/01/28 06:49:37;;;;;;;9.10;7.20;;;;;;;2.52;100.00;95674.50;5030467;28;20447;-50
2021/01/28 06:52:38;;;;;;;10.52;7.85;;;;;;;2.53;100.00;95677.94;5041954;28;20823;-51
2021/01/28 06:55:14;;;;;;;10.35;6.57;;;;;;;2.60;100.00;95679.94;5014038;28;20415;-49
2021/01/28 06:58:08;;;;;;;8.55;6.60;;;;;;;2.58;100.00;95681.84;5038833;28;20505;-52
2021/01/28 07:00:47;;;;;;;8.60;6.43;;;;;;;2.64;100.00;95674.53;5042039;28;20753;-54
2021/01/28 07:03:20;;;;;;;8.70;6.47;;;;;;;2.70;100.00;95674.06;5031096;28;20421;-49
2021/01/28 07:06:07;;;;;;;9.57;6.20;;;;;;;2.70;100.00;95674.06;5041168;28;20413;-48
2021/01/28 07:08:49;;;;;;;7.53;5.57;;;;;;;2.79;100.00;95671.59;5029065;28;20923;-49
2021/01/28 07:11:33;;;;;;;8.65;5.80;;;;;;;2.77;100.00;95673.47;5027260;28;20405;-50
2021/01/28 07:14:13;;;;;;;8.00;5.20;;;;;;;2.95;100.00;95667.81;5030477;28;20411;-48
2021/01/28 07:16:53;;;;;;;8.05;4.57;;;;;;;3.02;100.00;95656.81;5044904;28;20946;-51
2021/01/28 07:19:22;;;;;;;6.15;4.30;;;;;;;3.19;100.00;95654.69;5029691;28;20406;-46
2021/01/28 07:21:52;;;;;;;5.75;4.00;;;;;;;3.25;100.00;95656.81;5039952;28;20437;-47
2021/01/28 07:24:32;;;;;;;5.18;3.88;;;;;;;3.47;100.00;95653.34;5033792;28;20423;-50
2021/01/28 07:27:02;;;;;;;5.93;3.67;;;;;;;3.52;100.00;95646.00;5022853;28;20423;-48
2021/01/28 07:29:55;;;;;;;6.90;3.70;;;;;;;3.48;100.00;95634.16;5033447;28;20482;-48
2021/01/28 07:32:56;;;;;;;5.10;3.60;;;;;;;3.57;100.00;95636.03;5033418;28;20452;-46
2021/01/28 07:35:46;;;;;;;5.20;3.70;;;;;;;3.57;100.00;95629.03;5024983;28;20821;-51
2021/01/28 07:38:53;;;;;;;6.17;4.00;;;;;;;3.66;100.00;95618.84;5046018;28;20420;-48
2021/01/28 07:41:54;;;;;;;4.43;3.70;;;;;;;3.52;100.00;95622.53;5034014;28;20413;-44
2021/01/28 07:44:50;;;;;;;6.00;3.90;;;;;;;3.65;100.00;95623.22;5032309;28;20578;-48
2021/01/28 07:47:48;;;;;;;5.93;4.00;;;;;;;3.56;100.00;95611.75;5036740;28;20411;-51
2021/01/28 07:50:31;;;;;;;7.47;4.15;;;;;;;3.75;100.00;95607.66;5019446;28;20414;-48
2021/01/28 07:53:37;;;;;;;6.68;4.32;;;;;;;3.77;100.00;95603.16;5040556;28;20414;-51
2021/01/28 07:56:45;;;;;;;7.70;4.40;;;;;;;3.83;100.00;95596.63;5026286;28;20946;-45
2021/01/28 07:59:15;;;;;;;7.35;4.32;;;;;;;3.76;100.00;95597.09;5026920;28;20930;-48
2021/01/28 08:01:43;;;;;;;6.55;4.30;;;;;;;3.86;100.00;95594.59;5038229;28;20416;-52
2021/01/28 08:04:15;;;;;;;7.68;4.30;;;;;;;4.17;100.00;95589.47;5023406;28;20769;-48
2021/01/28 08:06:43;;;;;;;6.63;4.40;;;;;;;4.31;100.00;95581.31;5036182;28;20417;-48
2021/01/28 08:09:14;;;;;;;6.13;3.83;;;;;;;4.14;100.00;95590.53;5044498;28;20428;-50
2021/01/28 08:11:47;;;;;;;6.20;3.80;;;;;;;3.97;100.00;95589.31;5031771;28;20437;-48
2021/01/28 08:14:15;;;;;;;5.72;4.07;;;;;;;4.29;100.00;95583.22;5037353;28;20421;-51
2021/01/28 08:16:43;;;;;;;6.93;4.28;;;;;;;4.50;100.00;95577.97;5031060;28;20446;-51
2021/01/28 08:19:15;;;;;;;6.47;3.95;;;;;;;4.77;100.00;95574.81;5028800;28;20463;-45
2021/01/28 08:21:42;;;;;;;4.78;3.90;;;;;;;4.72;100.00;95567.38;5027509;28;20445;-52
2021/01/28 08:24:14;;;;;;;9.23;5.38;;;;;;;4.63;100.00;95562.13;5044091;28;20460;-51
2021/01/28 08:26:42;;;;;;;5.78;4.35;;;;;;;4.47;100.00;95558.22;5032388;28;20935;-49
2021/01/28 08:29:14;;;;;;;7.72;4.40;;;;;;;4.41;100.00;95555.28;5037478;28;20776;-49
2021/01/28 08:31:43;;;;;;;7.47;4.80;;;;;;;4.64;100.00;95550.72;5032852;28;20410;-53
2021/01/28 08:34:15;;;;;;;8.90;4.60;;;;;;;4.59;100.00;95551.09;5031032;28;20421;-47
2021/01/28 08:36:46;;;;;;;9.00;4.50;;;;;;;4.45;100.00;95543.63;5034970;28;20481;-52
2021/01/28 08:39:15;;;;;;;7.70;4.90;;;;;;;4.72;100.00;95540.44;5037460;28;20479;-48
2021/01/28 08:41:44;;;;;;;10.30;5.20;;;;;;;4.90;99.72;95527.59;5029461;28;21043;-51
2021/01/28 08:44:15;;;;;;;7.20;4.70;;;;;;;4.92;98.83;95523.03;5039176;28;20425;-55
2021/01/28 08:46:44;;;;;;;8.23;5.30;;;;;;;4.66;98.97;95522.69;5035249;28;20427;-51
2021/01/28 08:49:16;;;;;;;6.47;4.30;;;;;;;4.98;99.13;95519.91;5026419;28;20422;-45
2021/01/28 08:51:55;;;;;;;9.73;4.55;;;;;;;4.89;97.41;95512.88;5037292;28;20936;-47
2021/01/28 08:54:26;;;;;;;7.20;4.70;;;;;;;4.81;98.20;95508.31;5027261;28;20415;-49
2021/01/28 08:56:57;;;;;;;9.95;5.28;;;;;;;4.83;98.16;95497.75;5036737;28;20423;-46
2021/01/28 08:59:30;;;;;;;8.52;4.80;;;;;;;4.83;97.97;95495.13;5034046;28;20473;-49
2021/01/28 09:01:57;;;;;;;8.55;4.50;;;;;;;5.08;97.22;95499.03;5040946;28;20425;-51
2021/01/28 09:04:27;;;;;;;7.80;4.60;;;;;;;5.11;95.73;95493.53;5050173;22;20442;-48
2021/01/28 09:06:55;;;;;;;6.97;4.47;;;;;;;4.89;96.81;95482.38;5079742;28;20475;-48
2021/01/28 09:09:25;;;;;;;8.13;4.60;;;;;;;5.08;97.22;95476.34;5075205;28;20413;-45
2021/01/28 09:12:14;;;;;;;6.28;4.05;;;;;;;5.26;97.13;95479.09;5075624;28;20437;-47
2021/01/28 09:14:43;;;;;;;6.53;3.78;;;;;;;5.19;94.60;95478.81;5063818;28;20424;-48
2021/01/28 09:17:24;;;;;;;5.85;3.92;;;;;;;5.06;96.86;95472.19;5064043;28;20839;-46
2021/01/28 09:19:56;;;;;;;7.40;4.13;;;;;;;5.37;95.29;95458.09;5095142;28;20409;-44
2021/01/28 09:22:30;;;;;;;9.10;3.30;;;;;;;5.17;96.61;95469.47;5092714;28;20404;-48
2021/01/28 09:24:57;;;;;;;7.13;3.15;;;;;;;4.98;97.16;95468.47;5092987;28;20429;-47
2021/01/28 09:27:35;;;;;;;7.07;3.22;;;;;;;4.73;98.91;95471.59;5067556;28;20415;-48
2021/01/28 09:30:17;;;;;;;5.72;3.00;;;;;;;4.65;100.00;95466.22;5084976;28;20486;-44
2021/01/28 09:32:45;;;;;;;7.18;2.80;;;;;;;4.52;100.00;95462.03;5096463;27;20443;-46
2021/01/28 09:35:17;;;;;;;6.22;2.90;;;;;;;4.30;100.00;95462.22;5093961;27;20423;-46
2021/01/28 09:37:46;;;;;;;7.47;2.67;;;;;;;4.25;100.00;95465.22;5088480;27;20411;-46
2021/01/28 09:40:22;;;;;;;6.30;2.88;;;;;;;3.97;100.00;95453.69;5075261;27;20952;-45
2021/01/28 09:42:50;;;;;;;6.50;2.90;;;;;;;4.04;100.00;95451.38;5090296;28;20947;-47
2021/01/28 09:45:24;;;;;;;6.63;3.00;;;;;;;3.99;100.00;95443.09;5087157;27;20456;-48
2021/01/28 09:47:53;;;;;;;7.43;3.20;;;;;;;4.06;100.00;95441.66;5095823;28;20404;-44
2021/01/28 09:50:21;;;;;;;5.95;3.05;;;;;;;3.89;100.00;95429.19;5063824;28;20890;-47
2021/01/28 09:52:49;;;;;;;5.40;3.00;;;;;;;4.09;100.00;95430.94;5089299;28;20514;-47
2021/01/28 09:55:18;;;;;;;5.63;2.90;;;;;;;4.10;100.00;95423.97;5096364;27;20400;-46
2021/01/28 09:57:46;;;;;;;7.07;2.90;;;;;;;4.16;100.00;95420.81;5100572;28;20418;-45
2021/01/28 10:00:16;;;;;;;7.90;2.85;;;;;;;3.93;100.00;95414.97;5070264;28;20484;-46
2021/01/28 10:02:45;;;;;;;5.07;2.80;;;;;;;4.09;100.00;95407.47;5075408;27;20412;-49
2021/01/28 10:05:15;;;;;;;6.43;2.80;;;;;;;4.00;100.00;95380.41;5091764;27;20408;-45
2021/01/28 10:07:45;;;;;;;4.60;2.38;;;;;;;3.87;100.00;95386.78;5080489;28;20623;-45
2021/01/28 10:10:13;;;;;;;5.63;2.50;;;;;;;3.69;100.00;95384.78;5092236;28;20400;-48
2021/01/28 10:12:41;;;;;;;6.00;2.88;;;;;;;3.55;100.00;95387.72;5086432;28;20403;-47
2021/01/28 10:15:09;;;;;;;6.53;2.65;;;;;;;3.83;100.00;95385.41;5094424;28;20405;-46
2021/01/28 10:17:37;;;;;;;4.88;2.70;;;;;;;3.85;100.00;95379.09;5101236;27;20782;-45
2021/01/28 10:20:07;;;;;;;5.23;2.63;;;;;;;3.82;100.00;95363.72;5069396;28;20396;-46
2021/01/28 10:22:37;;;;;;;7.10;2.58;;;;;;;4.02;100.00;95352.38;5090652;27;20461;-47
2021/01/28 10:25:07;;;;;;;5.65;2.70;;;;;;;3.98;100.00;95345.78;5104221;28;20423;-46
2021/01/28 10:27:34;;;;;;;5.90;2.78;;;;;;;3.95;100.00;95345.22;5101903;28;20415;-49
2021/01/28 10:30:02;;;;;;;5.88;2.83;;;;;;;4.03;100.00;95338.41;5090067;28;20950;-44
2021/01/28 10:32:29;;;;;;;5.25;3.00;;;;;;;3.98;100.00;95319.72;5067122;28;20410;-44
2021/01/28 10:34:58;;;;;;;4.70;2.80;;;;;;;4.09;100.00;95321.38;5099184;28;20443;-44
2021/01/28 10:37:27;;;;;;;6.20;2.80;;;;;;;4.07;100.00;95318.09;5086171;27;20873;-46
2021/01/28 10:39:54;;;;;;;5.13;2.50;;;;;;;4.20;100.00;95310.03;5078286;28;20481;-45
2021/01/28 10:42:25;;;;;;;5.38;2.58;;;;;;;4.35;100.00;95303.47;5098814;28;20419;-49
2021/01/28 10:44:53;;;;;;;6.57;2.00;;;;;;;4.45;100.00;95299.09;5090426;27;21243;-49
2021/01/28 10:47:20;;;;;;;4.07;1.65;;;;;;;4.51;100.00;95300.34;5078651;28;20922;-45
2021/01/28 10:50:07;;;;;;;4.95;1.77;;;;;;;4.83;100.00;95294.84;5086352;28;20481;-45
2021/01/28 10:52:36;;;;;;;3.55;1.13;;;;;;;4.85;100.00;95285.09;5090450;28;20404;-45
2021/01/28 10:55:05;;;;;;;4.13;1.10;;;;;;;4.91;100.00;95284.50;5095913;28;20415;-44
2021/01/28 10:57:32;;;;;;;3.70;1.10;;;;;;;5.04;100.00;95283.41;5102032;28;20785;-46
2021/01/28 11:00:02;;;;;;;3.80;1.20;;;;;;;4.93;100.00;95287.81;5094931;28;20419;-47
2021/01/28 11:02:30;;;;;;;3.97;0.88;;;;;;;5.06;100.00;95291.91;5096130;28;20918;-46
2021/01/28 11:04:57;;;;;;;2.63;1.00;;;;;;;5.10;100.00;95286.28;5092012;28;20491;-45
2021/01/28 11:07:24;;;;;;;2.78;1.30;;;;;;;5.07;100.00;95283.13;5099489;28;20472;-50
2021/01/28 11:09:52;;;;;;;3.95;1.10;;;;;;;4.94;100.00;95271.19;5088638;28;20820;-49
2021/01/28 11:12:20;;;;;;;2.72;1.10;;;;;;;4.89;100.00;95260.34;5098461;28;20412;-46
2021/01/28 11:14:46;;;;;;;4.15;1.15;;;;;;;4.99;100.00;95258.53;5070114;28;20411;-52
2021/01/28 11:17:13;;;;;;;3.00;1.20;;;;;;;4.95;100.00;95264.97;5078684;28;20418;-49
2021/01/28 11:19:41;;;;;;;4.10;1.30;;;;;;;4.81;100.00;95247.13;5099963;27;20396;-45
2021/01/28 11:22:57;;;;;;;3.22;1.67;;;;;;;4.73;100.00;95240.00;5087176;28;20423;-44
2021/01/28 11:26:15;;;;;;;3.22;1.38;;;;;;;4.52;100.00;95221.88;5088242;28;20813;-48
2021/01/28 11:28:43;;;;;;;3.37;1.30;;;;;;;4.79;100.00;95220.34;5103762;28;20470;-47
2021/01/28 11:31:12;;;;;;;2.40;1.20;;;;;;;4.89;100.00;95210.72;5050642;28;20786;-47
2021/01/28 11:33:39;;;;;;;2.53;0.90;;;;;;;4.83;100.00;95211.28;5100429;28;20408;-46
2021/01/28 11:36:06;;;;;;;2.78;0.95;;;;;;;4.83;100.00;95194.78;5093263;28;20412;-45
2021/01/28 11:38:34;;;;;;;4.07;1.10;;;;;;;4.93;100.00;95183.34;5092985;28;20495;-48
2021/01/28 11:41:03;;;;;;;2.60;0.88;;;;;;;4.87;100.00;95181.28;5096714;28;20400;-46
2021/01/28 11:43:30;;;;;;;3.33;1.20;;;;;;;4.94;100.00;95171.91;5100730;27;20512;-45
2021/01/28 11:45:58;;;;;;;3.58;1.13;;;;;;;4.91;100.00;95168.78;5089679;28;20416;-45
2021/01/28 11:48:25;;;;;;;3.13;1.00;;;;;;;4.75;100.00;95166.75;5092182;28;20453;-47
2021/01/28 11:50:52;;;;;;;3.03;0.90;;;;;;;4.77;100.00;95164.81;5091800;28;20829;-47
2021/01/28 11:53:19;;;;;;;2.10;0.80;;;;;;;4.82;100.00;95153.94;5080980;28;20412;-48
2021/01/28 11:55:46;;;;;;;2.33;0.80;;;;;;;4.77;100.00;95154.38;5087944;28;20432;-46
2021/01/28 11:58:32;;;;;;;15.02;6.97;;;;;;;4.72;100.00;95149.59;5102738;28;20518;-45
2021/01/28 12:01:00;;;;;;;22.13;10.35;;;;;;;4.60;100.00;95142.88;5093964;28;20412;-46
2021/01/28 12:03:27;;;;;;;47.27;22.60;;;;;;;4.75;100.00;95138.03;5086334;28;20963;-50
2021/01/28 12:05:55;;;;;;;56.45;28.83;;;;;;;4.79;100.00;95128.94;5085878;28;20426;-45
2021/01/28 12:08:22;;;;;;;19.80;9.60;;;;;;;4.71;100.00;95128.81;5083829;28;20424;-48
2021/01/28 12:10:49;;;;;;;31.58;18.88;;;;;;;4.80;100.00;95127.16;5080561;28;20791;-45